sensor_id;sensor_type;location;lat;lon;timestamp;temperature;humidity
5743;DHT22;2896;53.500;10.020;2022-12-07T00:01:48;3.50;99.90
5743;DHT22;2896;53.500;10.020;2022-12-07T00:04:16;3.30;99.90
5743;DHT22;2896;53.500;10.020;2022-12-07T00:06:44;3.30;99.90
5743;DHT22;2896;53.500;10.020;2022-12-07T00:09:14;3.40;99.90
5743;DHT22;2896;53.500;10.020;2022-12-07T00:11:42;3.40;99.90
5743;DHT22;2896;53.500;10.020;2022-12-07T00:14:12;3.50;99.90
5743;DHT22;2896;53.500;10.020;2022-12-07T00:16:39;3.50;99.90
5743;DHT22;2896;53.500;10.020;2022-12-07T00:19:06;3.50;99.90
5743;DHT22;2896;53.500;10.020;2022-12-07T00:21:35;3.40;99.90
5743;DHT22;2896;53.500;10.020;2022-12-07T00:24:02;3.30;99.90
5743;DHT22;2896;53.500;10.020;2022-12-07T00:26:31;3.50;99.90
5743;DHT22;2896;53.500;10.020;2022-12-07T00:29:00;3.50;99.90
5743;DHT22;2896;53.500;10.020;2022-12-07T00:31:31;3.30;99.90
5743;DHT22;2896;53.500;10.020;2022-12-07T00:33:58;3.30;99.90
5743;DHT22;2896;53.500;10.020;2022-12-07T00:36:25;3.50;99.90
5743;DHT22;2896;53.500;10.020;2022-12-07T00:38:52;3.50;99.90
5743;DHT22;2896;53.500;10.020;2022-12-07T00:41:21;4.20;99.90
5743;DHT22;2896;53.500;10.020;2022-12-07T00:43:48;3.30;99.90
5743;DHT22;2896;53.500;10.020;2022-12-07T00:46:16;3.20;99.90
5743;DHT22;2896;53.500;10.020;2022-12-07T00:48:45;3.30;99.90
5743;DHT22;2896;53.500;10.020;2022-12-07T00:51:13;3.20;99.90
5743;DHT22;2896;53.500;10.020;2022-12-07T00:53:40;3.20;99.90
5743;DHT22;2896;53.500;10.020;2022-12-07T00:56:07;3.20;99.90
5743;DHT22;2896;53.500;10.020;2022-12-07T00:58:34;3.30;99.90
5743;DHT22;2896;53.500;10.020;2022-12-07T01:01:02;3.20;99.90
5743;DHT22;2896;53.500;10.020;2022-12-07T01:03:28;3.20;99.90
5743;DHT22;2896;53.500;10.020;2022-12-07T01:05:57;3.50;99.90
5743;DHT22;2896;53.500;10.020;2022-12-07T01:08:25;3.60;99.90
5743;DHT22;2896;53.500;10.020;2022-12-07T01:10:58;3.50;99.90
5743;DHT22;2896;53.500;10.020;2022-12-07T01:13:25;3.60;99.90
5743;DHT22;2896;53.500;10.020;2022-12-07T01:15:57;3.50;99.90
5743;DHT22;2896;53.500;10.020;2022-12-07T01:18:25;3.50;99.90
5743;DHT22;2896;53.500;10.020;2022-12-07T01:20:59;3.50;99.90
5743;DHT22;2896;53.500;10.020;2022-12-07T01:23:26;3.40;99.90
5743;DHT22;2896;53.500;10.020;2022-12-07T01:25:56;3.50;99.90
5743;DHT22;2896;53.500;10.020;2022-12-07T01:28:23;3.30;99.90
5743;DHT22;2896;53.500;10.020;2022-12-07T01:30:58;3.20;99.90
5743;DHT22;2896;53.500;10.020;2022-12-07T01:33:26;3.40;99.90
5743;DHT22;2896;53.500;10.020;2022-12-07T01:35:53;3.50;99.90
5743;DHT22;2896;53.500;10.020;2022-12-07T01:38:21;3.40;99.90
5743;DHT22;2896;53.500;10.020;2022-12-07T01:40:54;3.40;99.90
5743;DHT22;2896;53.500;10.020;2022-12-07T01:43:21;3.50;99.90
5743;DHT22;2896;53.500;10.020;2022-12-07T01:45:49;3.50;99.90
5743;DHT22;2896;53.500;10.020;2022-12-07T01:48:18;3.50;99.90
5743;DHT22;2896;53.500;10.020;2022-12-07T01:50:48;3.60;99.90
5743;DHT22;2896;53.500;10.020;2022-12-07T01:53:15;3.50;99.90
5743;DHT22;2896;53.500;10.020;2022-12-07T01:55:47;3.40;99.90
5743;DHT22;2896;53.500;10.020;2022-12-07T01:58:16;3.50;99.90
5743;DHT22;2896;53.500;10.020;2022-12-07T02:00:43;3.60;99.90
5743;DHT22;2896;53.500;10.020;2022-12-07T02:03:15;3.50;99.90
5743;DHT22;2896;53.500;10.020;2022-12-07T02:05:43;3.50;99.90
5743;DHT22;2896;53.500;10.020;2022-12-07T02:08:10;3.30;99.90
5743;DHT22;2896;53.500;10.020;2022-12-07T02:10:38;3.40;99.90
5743;DHT22;2896;53.500;10.020;2022-12-07T02:13:10;3.50;99.90
5743;DHT22;2896;53.500;10.020;2022-12-07T02:15:48;3.50;99.90
5743;DHT22;2896;53.500;10.020;2022-12-07T02:18:22;3.50;99.90
5743;DHT22;2896;53.500;10.020;2022-12-07T02:20:57;3.40;99.90
5743;DHT22;2896;53.500;10.020;2022-12-07T02:23:57;3.20;99.90
5743;DHT22;2896;53.500;10.020;2022-12-07T02:26:44;3.20;99.90
5743;DHT22;2896;53.500;10.020;2022-12-07T02:29:21;3.10;99.90
5743;DHT22;2896;53.500;10.020;2022-12-07T02:31:56;3.10;99.90
5743;DHT22;2896;53.500;10.020;2022-12-07T02:34:32;3.00;99.90
5743;DHT22;2896;53.500;10.020;2022-12-07T02:37:05;3.00;99.90
5743;DHT22;2896;53.500;10.020;2022-12-07T02:39:39;3.00;99.90
5743;DHT22;2896;53.500;10.020;2022-12-07T02:42:10;3.10;99.90
5743;DHT22;2896;53.500;10.020;2022-12-07T02:44:40;2.90;99.90
5743;DHT22;2896;53.500;10.020;2022-12-07T02:47:10;3.10;99.90
5743;DHT22;2896;53.500;10.020;2022-12-07T02:49:39;2.80;99.90
5743;DHT22;2896;53.500;10.020;2022-12-07T02:52:06;2.90;99.90
5743;DHT22;2896;53.500;10.020;2022-12-07T02:54:33;3.10;99.90
5743;DHT22;2896;53.500;10.020;2022-12-07T02:57:05;2.90;99.90
5743;DHT22;2896;53.500;10.020;2022-12-07T02:59:46;2.90;99.90
5743;DHT22;2896;53.500;10.020;2022-12-07T03:02:20;2.70;99.90
5743;DHT22;2896;53.500;10.020;2022-12-07T03:04:59;2.90;99.90
5743;DHT22;2896;53.500;10.020;2022-12-07T03:07:33;2.80;99.90
5743;DHT22;2896;53.500;10.020;2022-12-07T03:10:14;3.00;99.90
5743;DHT22;2896;53.500;10.020;2022-12-07T03:12:46;2.80;99.90
5743;DHT22;2896;53.500;10.020;2022-12-07T03:15:21;2.90;99.90
5743;DHT22;2896;53.500;10.020;2022-12-07T03:17:54;2.70;99.90
5743;DHT22;2896;53.500;10.020;2022-12-07T03:20:24;2.90;99.90
5743;DHT22;2896;53.500;10.020;2022-12-07T03:22:52;2.80;99.90
5743;DHT22;2896;53.500;10.020;2022-12-07T03:25:20;2.80;99.90
5743;DHT22;2896;53.500;10.020;2022-12-07T03:27:51;2.70;99.90
5743;DHT22;2896;53.500;10.020;2022-12-07T03:30:24;2.60;99.90
5743;DHT22;2896;53.500;10.020;2022-12-07T03:32:56;2.50;99.90
5743;DHT22;2896;53.500;10.020;2022-12-07T03:35:27;2.50;99.90
5743;DHT22;2896;53.500;10.020;2022-12-07T03:37:58;2.50;99.90
5743;DHT22;2896;53.500;10.020;2022-12-07T03:40:30;2.50;99.90
5743;DHT22;2896;53.500;10.020;2022-12-07T03:43:00;2.40;99.90
5743;DHT22;2896;53.500;10.020;2022-12-07T03:45:32;2.60;99.90
5743;DHT22;2896;53.500;10.020;2022-12-07T03:48:07;2.40;99.90
5743;DHT22;2896;53.500;10.020;2022-12-07T03:50:40;2.50;99.90
5743;DHT22;2896;53.500;10.020;2022-12-07T03:53:12;2.40;99.90
5743;DHT22;2896;53.500;10.020;2022-12-07T03:55:43;2.40;99.90
5743;DHT22;2896;53.500;10.020;2022-12-07T03:58:12;2.30;99.90
5743;DHT22;2896;53.500;10.020;2022-12-07T04:00:43;2.50;99.90
5743;DHT22;2896;53.500;10.020;2022-12-07T04:03:10;2.20;99.90
5743;DHT22;2896;53.500;10.020;2022-12-07T04:05:37;2.40;99.90
5743;DHT22;2896;53.500;10.020;2022-12-07T04:08:04;2.30;99.90
5743;DHT22;2896;53.500;10.020;2022-12-07T04:10:31;2.30;99.90
5743;DHT22;2896;53.500;10.020;2022-12-07T04:12:58;2.20;99.90
5743;DHT22;2896;53.500;10.020;2022-12-07T04:15:24;2.10;99.90
5743;DHT22;2896;53.500;10.020;2022-12-07T04:17:52;2.30;99.90
5743;DHT22;2896;53.500;10.020;2022-12-07T04:20:20;2.20;99.90
5743;DHT22;2896;53.500;10.020;2022-12-07T04:22:47;2.20;99.90
5743;DHT22;2896;53.500;10.020;2022-12-07T04:25:13;2.20;99.90
5743;DHT22;2896;53.500;10.020;2022-12-07T04:27:40;2.10;99.90
5743;DHT22;2896;53.500;10.020;2022-12-07T04:30:08;1.90;99.90
5743;DHT22;2896;53.500;10.020;2022-12-07T04:32:34;1.90;99.90
5743;DHT22;2896;53.500;10.020;2022-12-07T04:35:03;2.00;99.90
5743;DHT22;2896;53.500;10.020;2022-12-07T04:37:30;2.10;99.90
5743;DHT22;2896;53.500;10.020;2022-12-07T04:39:56;2.10;99.90
5743;DHT22;2896;53.500;10.020;2022-12-07T04:42:23;2.00;99.90
5743;DHT22;2896;53.500;10.020;2022-12-07T04:44:49;2.00;99.90
5743;DHT22;2896;53.500;10.020;2022-12-07T04:47:18;1.90;99.90
5743;DHT22;2896;53.500;10.020;2022-12-07T04:49:45;1.90;99.90
5743;DHT22;2896;53.500;10.020;2022-12-07T04:52:13;1.90;99.90
5743;DHT22;2896;53.500;10.020;2022-12-07T04:54:39;1.90;99.90
5743;DHT22;2896;53.500;10.020;2022-12-07T04:57:06;1.90;99.90
5743;DHT22;2896;53.500;10.020;2022-12-07T04:59:33;1.90;99.90
5743;DHT22;2896;53.500;10.020;2022-12-07T05:02:00;1.80;99.90
5743;DHT22;2896;53.500;10.020;2022-12-07T05:04:26;1.80;99.90
5743;DHT22;2896;53.500;10.020;2022-12-07T05:06:53;1.70;99.90
5743;DHT22;2896;53.500;10.020;2022-12-07T05:09:21;1.80;99.90
5743;DHT22;2896;53.500;10.020;2022-12-07T05:11:47;1.70;99.90
5743;DHT22;2896;53.500;10.020;2022-12-07T05:14:16;1.60;99.90
5743;DHT22;2896;53.500;10.020;2022-12-07T05:16:45;1.60;99.90
5743;DHT22;2896;53.500;10.020;2022-12-07T05:19:12;1.60;99.90
5743;DHT22;2896;53.500;10.020;2022-12-07T05:21:39;1.60;99.90
5743;DHT22;2896;53.500;10.020;2022-12-07T05:24:07;1.70;99.90
5743;DHT22;2896;53.500;10.020;2022-12-07T05:26:36;1.50;99.90
5743;DHT22;2896;53.500;10.020;2022-12-07T05:29:03;1.50;99.90
5743;DHT22;2896;53.500;10.020;2022-12-07T05:31:30;1.40;99.90
5743;DHT22;2896;53.500;10.020;2022-12-07T05:33:57;1.40;99.90
5743;DHT22;2896;53.500;10.020;2022-12-07T05:36:24;1.40;99.90
5743;DHT22;2896;53.500;10.020;2022-12-07T05:38:50;1.20;99.90
5743;DHT22;2896;53.500;10.020;2022-12-07T05:41:18;1.20;99.90
5743;DHT22;2896;53.500;10.020;2022-12-07T05:44:04;1.10;99.90
5743;DHT22;2896;53.500;10.020;2022-12-07T05:46:31;1.00;99.90
5743;DHT22;2896;53.500;10.020;2022-12-07T05:48:57;1.10;99.90
5743;DHT22;2896;53.500;10.020;2022-12-07T05:51:24;1.00;99.90
5743;DHT22;2896;53.500;10.020;2022-12-07T05:53:51;1.10;99.90
5743;DHT22;2896;53.500;10.020;2022-12-07T05:56:17;1.10;99.90
5743;DHT22;2896;53.500;10.020;2022-12-07T05:58:44;1.00;99.90
5743;DHT22;2896;53.500;10.020;2022-12-07T06:01:30;1.00;99.90
5743;DHT22;2896;53.500;10.020;2022-12-07T06:03:56;1.10;99.90
5743;DHT22;2896;53.500;10.020;2022-12-07T06:06:23;1.00;99.90
5743;DHT22;2896;53.500;10.020;2022-12-07T06:08:50;0.90;99.90
5743;DHT22;2896;53.500;10.020;2022-12-07T06:11:16;1.00;99.90
5743;DHT22;2896;53.500;10.020;2022-12-07T06:14:01;0.80;99.90
5743;DHT22;2896;53.500;10.020;2022-12-07T06:16:27;1.00;99.90
5743;DHT22;2896;53.500;10.020;2022-12-07T06:18:55;0.80;99.90
5743;DHT22;2896;53.500;10.020;2022-12-07T06:21:22;1.20;99.90
5743;DHT22;2896;53.500;10.020;2022-12-07T06:23:49;1.10;99.90
5743;DHT22;2896;53.500;10.020;2022-12-07T06:26:15;1.30;99.90
5743;DHT22;2896;53.500;10.020;2022-12-07T06:28:42;1.10;99.90
5743;DHT22;2896;53.500;10.020;2022-12-07T06:31:09;1.00;99.90
5743;DHT22;2896;53.500;10.020;2022-12-07T06:33:36;1.00;99.90
5743;DHT22;2896;53.500;10.020;2022-12-07T06:36:05;1.20;99.90
5743;DHT22;2896;53.500;10.020;2022-12-07T06:38:31;1.30;99.90
5743;DHT22;2896;53.500;10.020;2022-12-07T06:40:58;1.30;99.90
5743;DHT22;2896;53.500;10.020;2022-12-07T06:43:25;1.40;99.90
5743;DHT22;2896;53.500;10.020;2022-12-07T06:45:52;1.50;99.90
5743;DHT22;2896;53.500;10.020;2022-12-07T06:48:19;1.70;99.90
5743;DHT22;2896;53.500;10.020;2022-12-07T06:50:46;1.60;99.90
5743;DHT22;2896;53.500;10.020;2022-12-07T06:53:14;1.70;99.90
5743;DHT22;2896;53.500;10.020;2022-12-07T06:55:42;1.80;99.90
5743;DHT22;2896;53.500;10.020;2022-12-07T06:58:09;1.70;99.90
5743;DHT22;2896;53.500;10.020;2022-12-07T07:00:35;1.70;99.90
5743;DHT22;2896;53.500;10.020;2022-12-07T07:03:02;1.80;99.90
5743;DHT22;2896;53.500;10.020;2022-12-07T07:05:29;1.70;99.90
5743;DHT22;2896;53.500;10.020;2022-12-07T07:07:55;1.70;99.90
5743;DHT22;2896;53.500;10.020;2022-12-07T07:10:23;1.80;99.90
5743;DHT22;2896;53.500;10.020;2022-12-07T07:12:50;1.90;99.90
5743;DHT22;2896;53.500;10.020;2022-12-07T07:15:17;1.90;99.90
5743;DHT22;2896;53.500;10.020;2022-12-07T07:17:44;2.00;99.90
5743;DHT22;2896;53.500;10.020;2022-12-07T07:20:11;1.90;99.90
5743;DHT22;2896;53.500;10.020;2022-12-07T07:22:38;1.90;99.90
5743;DHT22;2896;53.500;10.020;2022-12-07T07:25:05;1.80;99.90
5743;DHT22;2896;53.500;10.020;2022-12-07T07:27:33;1.80;99.90
5743;DHT22;2896;53.500;10.020;2022-12-07T07:30:00;1.80;99.90
5743;DHT22;2896;53.500;10.020;2022-12-07T07:32:27;1.90;99.90
5743;DHT22;2896;53.500;10.020;2022-12-07T07:34:54;1.90;99.90
5743;DHT22;2896;53.500;10.020;2022-12-07T07:37:21;1.90;99.90
5743;DHT22;2896;53.500;10.020;2022-12-07T07:39:47;1.90;99.90
5743;DHT22;2896;53.500;10.020;2022-12-07T07:42:14;2.00;99.90
5743;DHT22;2896;53.500;10.020;2022-12-07T07:44:42;2.00;99.90
5743;DHT22;2896;53.500;10.020;2022-12-07T07:47:09;2.00;99.90
5743;DHT22;2896;53.500;10.020;2022-12-07T07:49:36;2.00;99.90
5743;DHT22;2896;53.500;10.020;2022-12-07T07:52:03;2.10;99.90
5743;DHT22;2896;53.500;10.020;2022-12-07T07:54:31;2.00;99.90
5743;DHT22;2896;53.500;10.020;2022-12-07T07:56:57;2.10;99.90
5743;DHT22;2896;53.500;10.020;2022-12-07T07:59:24;2.10;99.90
5743;DHT22;2896;53.500;10.020;2022-12-07T08:01:52;2.10;99.90
5743;DHT22;2896;53.500;10.020;2022-12-07T08:04:19;2.10;99.90
5743;DHT22;2896;53.500;10.020;2022-12-07T08:06:45;2.20;99.90
5743;DHT22;2896;53.500;10.020;2022-12-07T08:09:12;2.10;99.90
5743;DHT22;2896;53.500;10.020;2022-12-07T08:11:39;2.20;99.90
5743;DHT22;2896;53.500;10.020;2022-12-07T08:14:06;2.20;99.90
5743;DHT22;2896;53.500;10.020;2022-12-07T08:16:32;2.10;99.90
5743;DHT22;2896;53.500;10.020;2022-12-07T08:19:00;2.30;99.90
5743;DHT22;2896;53.500;10.020;2022-12-07T08:21:27;2.30;99.90
5743;DHT22;2896;53.500;10.020;2022-12-07T08:23:53;4.20;99.90
5743;DHT22;2896;53.500;10.020;2022-12-07T08:26:20;2.30;99.90
5743;DHT22;2896;53.500;10.020;2022-12-07T08:28:47;2.50;99.90
5743;DHT22;2896;53.500;10.020;2022-12-07T08:31:15;2.40;99.90
5743;DHT22;2896;53.500;10.020;2022-12-07T08:33:44;2.50;99.90
5743;DHT22;2896;53.500;10.020;2022-12-07T08:36:13;2.60;99.90
5743;DHT22;2896;53.500;10.020;2022-12-07T08:38:40;2.50;99.90
5743;DHT22;2896;53.500;10.020;2022-12-07T08:41:08;2.60;99.90
5743;DHT22;2896;53.500;10.020;2022-12-07T08:43:36;2.70;99.90
5743;DHT22;2896;53.500;10.020;2022-12-07T08:46:07;2.60;99.90
5743;DHT22;2896;53.500;10.020;2022-12-07T08:48:37;2.80;99.90
5743;DHT22;2896;53.500;10.020;2022-12-07T08:51:05;2.80;99.90
5743;DHT22;2896;53.500;10.020;2022-12-07T08:53:34;2.80;99.90
5743;DHT22;2896;53.500;10.020;2022-12-07T08:56:01;2.80;99.90
5743;DHT22;2896;53.500;10.020;2022-12-07T08:58:28;2.80;99.90
5743;DHT22;2896;53.500;10.020;2022-12-07T09:00:55;2.90;99.90
5743;DHT22;2896;53.500;10.020;2022-12-07T09:03:22;3.00;99.90
5743;DHT22;2896;53.500;10.020;2022-12-07T09:05:48;3.10;99.90
5743;DHT22;2896;53.500;10.020;2022-12-07T09:08:15;3.30;99.90
5743;DHT22;2896;53.500;10.020;2022-12-07T09:10:43;3.20;99.90
5743;DHT22;2896;53.500;10.020;2022-12-07T09:13:10;3.40;99.90
5743;DHT22;2896;53.500;10.020;2022-12-07T09:15:37;3.40;99.90
5743;DHT22;2896;53.500;10.020;2022-12-07T09:18:04;3.40;99.90
5743;DHT22;2896;53.500;10.020;2022-12-07T09:20:30;3.50;99.90
5743;DHT22;2896;53.500;10.020;2022-12-07T09:22:57;3.50;99.90
5743;DHT22;2896;53.500;10.020;2022-12-07T09:25:24;3.50;99.90
5743;DHT22;2896;53.500;10.020;2022-12-07T09:27:56;3.50;99.90
5743;DHT22;2896;53.500;10.020;2022-12-07T09:30:23;3.60;99.90
5743;DHT22;2896;53.500;10.020;2022-12-07T09:32:51;3.60;99.90
5743;DHT22;2896;53.500;10.020;2022-12-07T09:35:18;3.70;99.90
5743;DHT22;2896;53.500;10.020;2022-12-07T09:37:45;3.70;99.90
5743;DHT22;2896;53.500;10.020;2022-12-07T09:40:12;3.90;99.90
5743;DHT22;2896;53.500;10.020;2022-12-07T09:42:42;3.90;99.90
5743;DHT22;2896;53.500;10.020;2022-12-07T09:45:15;4.00;99.90
5743;DHT22;2896;53.500;10.020;2022-12-07T09:47:42;4.10;99.90
5743;DHT22;2896;53.500;10.020;2022-12-07T09:50:14;4.10;99.90
5743;DHT22;2896;53.500;10.020;2022-12-07T09:52:43;4.10;99.90
5743;DHT22;2896;53.500;10.020;2022-12-07T09:55:12;4.10;99.90
5743;DHT22;2896;53.500;10.020;2022-12-07T09:57:40;4.00;99.90
5743;DHT22;2896;53.500;10.020;2022-12-07T10:00:14;4.10;99.90
5743;DHT22;2896;53.500;10.020;2022-12-07T10:02:42;4.00;99.90
5743;DHT22;2896;53.500;10.020;2022-12-07T10:05:14;4.10;99.90
5743;DHT22;2896;53.500;10.020;2022-12-07T10:07:41;4.10;8.60
5743;DHT22;2896;53.500;10.020;2022-12-07T10:10:15;4.20;1.00
5743;DHT22;2896;53.500;10.020;2022-12-07T10:12:57;4.20;1.00
5743;DHT22;2896;53.500;10.020;2022-12-07T10:15:41;4.20;99.90
5743;DHT22;2896;53.500;10.020;2022-12-07T10:18:18;4.10;99.90
5743;DHT22;2896;53.500;10.020;2022-12-07T10:20:47;4.30;99.90
5743;DHT22;2896;53.500;10.020;2022-12-07T10:23:15;4.30;99.90
5743;DHT22;2896;53.500;10.020;2022-12-07T10:25:42;4.20;99.90
5743;DHT22;2896;53.500;10.020;2022-12-07T10:28:13;4.10;99.90
5743;DHT22;2896;53.500;10.020;2022-12-07T10:30:51;4.30;99.90
5743;DHT22;2896;53.500;10.020;2022-12-07T10:33:34;4.20;1.00
5743;DHT22;2896;53.500;10.020;2022-12-07T10:36:17;4.20;99.90
5743;DHT22;2896;53.500;10.020;2022-12-07T10:38:46;4.20;1.00
5743;DHT22;2896;53.500;10.020;2022-12-07T10:41:13;4.30;1.00
5743;DHT22;2896;53.500;10.020;2022-12-07T10:43:47;4.20;1.00
5743;DHT22;2896;53.500;10.020;2022-12-07T10:52:00;4.30;1.00
5743;DHT22;2896;53.500;10.020;2022-12-07T10:54:41;4.30;99.90
5743;DHT22;2896;53.500;10.020;2022-12-07T10:57:22;4.40;99.90
5743;DHT22;2896;53.500;10.020;2022-12-07T11:00:04;4.50;1.00
5743;DHT22;2896;53.500;10.020;2022-12-07T11:03:09;4.60;1.00
5743;DHT22;2896;53.500;10.020;2022-12-07T11:05:44;4.70;99.90
5743;DHT22;2896;53.500;10.020;2022-12-07T11:08:21;4.90;99.90
5743;DHT22;2896;53.500;10.020;2022-12-07T11:10:53;4.80;1.00
5743;DHT22;2896;53.500;10.020;2022-12-07T11:13:26;4.80;1.00
5743;DHT22;2896;53.500;10.020;2022-12-07T11:16:04;4.80;1.00
5743;DHT22;2896;53.500;10.020;2022-12-07T11:18:39;4.80;99.90
5743;DHT22;2896;53.500;10.020;2022-12-07T11:21:15;4.60;1.00
5743;DHT22;2896;53.500;10.020;2022-12-07T11:23:49;4.70;1.00
5743;DHT22;2896;53.500;10.020;2022-12-07T11:26:27;4.80;1.00
5743;DHT22;2896;53.500;10.020;2022-12-07T11:29:06;4.80;1.00
5743;DHT22;2896;53.500;10.020;2022-12-07T11:31:54;4.80;99.90
5743;DHT22;2896;53.500;10.020;2022-12-07T11:34:29;4.60;1.00
5743;DHT22;2896;53.500;10.020;2022-12-07T11:37:01;4.60;96.90
5743;DHT22;2896;53.500;10.020;2022-12-07T11:39:33;4.50;99.90
5743;DHT22;2896;53.500;10.020;2022-12-07T11:42:05;4.60;99.90
5743;DHT22;2896;53.500;10.020;2022-12-07T11:44:39;4.60;1.00
5743;DHT22;2896;53.500;10.020;2022-12-07T11:47:13;4.60;99.90
5743;DHT22;2896;53.500;10.020;2022-12-07T11:49:47;4.60;99.90
5743;DHT22;2896;53.500;10.020;2022-12-07T11:52:22;4.70;1.00
5743;DHT22;2896;53.500;10.020;2022-12-07T11:54:53;4.80;99.90
5743;DHT22;2896;53.500;10.020;2022-12-07T11:57:24;4.80;99.90
5743;DHT22;2896;53.500;10.020;2022-12-07T11:59:56;4.80;99.90
5743;DHT22;2896;53.500;10.020;2022-12-07T12:02:26;4.80;99.90
5743;DHT22;2896;53.500;10.020;2022-12-07T12:05:01;4.70;1.00
5743;DHT22;2896;53.500;10.020;2022-12-07T12:07:31;4.70;1.00
5743;DHT22;2896;53.500;10.020;2022-12-07T12:10:00;4.70;1.00
5743;DHT22;2896;53.500;10.020;2022-12-07T12:12:50;4.80;99.90
5743;DHT22;2896;53.500;10.020;2022-12-07T12:15:27;4.90;99.90
5743;DHT22;2896;53.500;10.020;2022-12-07T12:18:05;4.80;1.00
5743;DHT22;2896;53.500;10.020;2022-12-07T12:20:42;4.80;1.00
5743;DHT22;2896;53.500;10.020;2022-12-07T12:23:12;4.80;1.00
5743;DHT22;2896;53.500;10.020;2022-12-07T12:25:42;4.80;1.00
5743;DHT22;2896;53.500;10.020;2022-12-07T12:28:22;4.80;1.00
5743;DHT22;2896;53.500;10.020;2022-12-07T12:31:05;4.80;99.90
5743;DHT22;2896;53.500;10.020;2022-12-07T12:33:33;5.00;99.90
5743;DHT22;2896;53.500;10.020;2022-12-07T12:36:24;4.90;55.90
5743;DHT22;2896;53.500;10.020;2022-12-07T12:39:08;5.00;81.90
5743;DHT22;2896;53.500;10.020;2022-12-07T12:41:53;5.20;1.00
5743;DHT22;2896;53.500;10.020;2022-12-07T12:44:40;5.30;1.00
5743;DHT22;2896;53.500;10.020;2022-12-07T12:47:41;5.40;99.90
5743;DHT22;2896;53.500;10.020;2022-12-07T12:50:17;5.50;27.80
5743;DHT22;2896;53.500;10.020;2022-12-07T12:52:51;5.50;1.00
5743;DHT22;2896;53.500;10.020;2022-12-07T12:58:36;5.80;1.00
5743;DHT22;2896;53.500;10.020;2022-12-07T13:01:32;5.70;1.00
5743;DHT22;2896;53.500;10.020;2022-12-07T13:04:02;5.60;1.00
5743;DHT22;2896;53.500;10.020;2022-12-07T13:06:34;5.50;1.00
5743;DHT22;2896;53.500;10.020;2022-12-07T13:09:03;5.50;1.00
5743;DHT22;2896;53.500;10.020;2022-12-07T13:11:33;5.50;1.00
5743;DHT22;2896;53.500;10.020;2022-12-07T13:14:35;5.60;1.00
5743;DHT22;2896;53.500;10.020;2022-12-07T13:17:02;5.50;1.00
5743;DHT22;2896;53.500;10.020;2022-12-07T13:20:00;5.50;1.00
5743;DHT22;2896;53.500;10.020;2022-12-07T13:22:39;5.50;1.00
5743;DHT22;2896;53.500;10.020;2022-12-07T13:25:11;5.50;99.90
5743;DHT22;2896;53.500;10.020;2022-12-07T13:27:39;5.60;99.90
5743;DHT22;2896;53.500;10.020;2022-12-07T13:30:14;5.40;99.90
5743;DHT22;2896;53.500;10.020;2022-12-07T13:32:41;5.40;99.90
5743;DHT22;2896;53.500;10.020;2022-12-07T13:35:29;5.20;99.90
5743;DHT22;2896;53.500;10.020;2022-12-07T13:37:57;5.10;99.90
5743;DHT22;2896;53.500;10.020;2022-12-07T13:40:24;5.00;99.90
5743;DHT22;2896;53.500;10.020;2022-12-07T13:42:58;5.10;99.90
5743;DHT22;2896;53.500;10.020;2022-12-07T13:45:27;5.10;99.90
5743;DHT22;2896;53.500;10.020;2022-12-07T13:48:16;5.00;99.90
5743;DHT22;2896;53.500;10.020;2022-12-07T13:50:54;5.10;1.00
5743;DHT22;2896;53.500;10.020;2022-12-07T13:53:21;5.00;99.90
5743;DHT22;2896;53.500;10.020;2022-12-07T13:55:48;5.00;99.90
5743;DHT22;2896;53.500;10.020;2022-12-07T13:58:15;4.90;1.00
5743;DHT22;2896;53.500;10.020;2022-12-07T14:00:42;5.00;1.00
5743;DHT22;2896;53.500;10.020;2022-12-07T14:03:31;4.90;1.00
5743;DHT22;2896;53.500;10.020;2022-12-07T14:06:13;4.90;1.00
5743;DHT22;2896;53.500;10.020;2022-12-07T14:08:40;4.90;1.00
5743;DHT22;2896;53.500;10.020;2022-12-07T14:11:10;4.80;99.90
5743;DHT22;2896;53.500;10.020;2022-12-07T14:13:44;4.80;99.90
5743;DHT22;2896;53.500;10.020;2022-12-07T14:16:22;4.70;99.90
5743;DHT22;2896;53.500;10.020;2022-12-07T14:18:49;4.70;99.90
5743;DHT22;2896;53.500;10.020;2022-12-07T14:21:19;4.60;99.90
5743;DHT22;2896;53.500;10.020;2022-12-07T14:24:12;4.60;99.90
5743;DHT22;2896;53.500;10.020;2022-12-07T14:26:41;4.50;99.90
5743;DHT22;2896;53.500;10.020;2022-12-07T14:29:27;4.50;99.90
5743;DHT22;2896;53.500;10.020;2022-12-07T14:31:56;4.40;99.90
5743;DHT22;2896;53.500;10.020;2022-12-07T14:34:24;4.40;99.90
5743;DHT22;2896;53.500;10.020;2022-12-07T14:36:52;4.30;99.90
5743;DHT22;2896;53.500;10.020;2022-12-07T14:39:19;4.30;99.90
5743;DHT22;2896;53.500;10.020;2022-12-07T14:41:46;4.10;99.90
5743;DHT22;2896;53.500;10.020;2022-12-07T14:44:20;4.00;99.90
5743;DHT22;2896;53.500;10.020;2022-12-07T14:46:47;4.00;99.90
5743;DHT22;2896;53.500;10.020;2022-12-07T14:49:14;3.90;99.90
5743;DHT22;2896;53.500;10.020;2022-12-07T14:51:42;3.80;99.90
5743;DHT22;2896;53.500;10.020;2022-12-07T14:54:15;3.80;99.90
5743;DHT22;2896;53.500;10.020;2022-12-07T14:56:43;3.70;99.90
5743;DHT22;2896;53.500;10.020;2022-12-07T14:59:11;3.60;99.90
5743;DHT22;2896;53.500;10.020;2022-12-07T15:01:38;3.50;99.90
5743;DHT22;2896;53.500;10.020;2022-12-07T15:04:05;3.50;99.90
5743;DHT22;2896;53.500;10.020;2022-12-07T15:06:31;3.40;99.90
5743;DHT22;2896;53.500;10.020;2022-12-07T15:08:58;3.20;99.90
5743;DHT22;2896;53.500;10.020;2022-12-07T15:11:26;3.30;99.90
5743;DHT22;2896;53.500;10.020;2022-12-07T15:13:53;3.30;99.90
5743;DHT22;2896;53.500;10.020;2022-12-07T15:16:37;3.20;99.90
5743;DHT22;2896;53.500;10.020;2022-12-07T15:19:05;3.10;99.90
5743;DHT22;2896;53.500;10.020;2022-12-07T15:21:32;3.00;99.90
5743;DHT22;2896;53.500;10.020;2022-12-07T15:23:58;2.90;99.90
5743;DHT22;2896;53.500;10.020;2022-12-07T15:26:26;2.90;99.90
5743;DHT22;2896;53.500;10.020;2022-12-07T15:28:53;4.20;99.90
5743;DHT22;2896;53.500;10.020;2022-12-07T15:31:20;3.00;99.90
5743;DHT22;2896;53.500;10.020;2022-12-07T15:33:47;2.80;99.90
5743;DHT22;2896;53.500;10.020;2022-12-07T15:36:19;2.90;99.90
5743;DHT22;2896;53.500;10.020;2022-12-07T15:38:47;2.80;99.90
5743;DHT22;2896;53.500;10.020;2022-12-07T15:41:14;2.70;99.90
5743;DHT22;2896;53.500;10.020;2022-12-07T15:43:42;2.60;99.90
5743;DHT22;2896;53.500;10.020;2022-12-07T15:46:32;2.60;99.90
5743;DHT22;2896;53.500;10.020;2022-12-07T15:48:59;2.50;99.90
5743;DHT22;2896;53.500;10.020;2022-12-07T15:51:26;2.40;99.90
5743;DHT22;2896;53.500;10.020;2022-12-07T15:53:54;2.30;99.90
5743;DHT22;2896;53.500;10.020;2022-12-07T15:56:20;2.20;99.90
5743;DHT22;2896;53.500;10.020;2022-12-07T15:58:48;2.20;99.90
5743;DHT22;2896;53.500;10.020;2022-12-07T16:01:16;2.10;99.90
5743;DHT22;2896;53.500;10.020;2022-12-07T16:03:44;2.00;99.90
5743;DHT22;2896;53.500;10.020;2022-12-07T16:06:11;2.00;99.90
5743;DHT22;2896;53.500;10.020;2022-12-07T16:08:42;2.00;99.90
5743;DHT22;2896;53.500;10.020;2022-12-07T16:11:09;1.90;99.90
5743;DHT22;2896;53.500;10.020;2022-12-07T16:13:35;1.80;99.90
5743;DHT22;2896;53.500;10.020;2022-12-07T16:16:06;1.70;99.90
5743;DHT22;2896;53.500;10.020;2022-12-07T16:18:33;1.80;99.90
5743;DHT22;2896;53.500;10.020;2022-12-07T16:21:00;1.70;99.90
5743;DHT22;2896;53.500;10.020;2022-12-07T16:23:27;1.70;99.90
5743;DHT22;2896;53.500;10.020;2022-12-07T16:25:54;1.60;99.90
5743;DHT22;2896;53.500;10.020;2022-12-07T16:28:21;1.40;99.90
5743;DHT22;2896;53.500;10.020;2022-12-07T16:30:48;1.40;99.90
5743;DHT22;2896;53.500;10.020;2022-12-07T16:33:16;1.30;99.90
5743;DHT22;2896;53.500;10.020;2022-12-07T16:35:42;1.20;99.90